Monday, October 23, 2017, 1:22 PM EDT
Back to Local

KCRW, Yeager Airport

Location: Charleston, WV, United States Lat: 38.367
Local Time: 1:22 PM EDT (17:22 GMT) Lon: -81.6
Time Zone: US/Eastern Elev: 980 ft

Show me the last for .
Show Decoded

2017-10-23 12:54 METAR KCRW 231654Z 11007KT 10SM FEW015 BKN070 OVC090 19/16 A2983 RMK AO2 PRESFR
                 SLP096 T01940156 =
2017-10-23 11:54 METAR KCRW 231554Z 11006KT 10SM FEW012 SCT040 OVC070 18/16 A2987 RMK AO2
                 RAB1459E47 SLP108 PRESFR P0000 T01830156 =
2017-10-23 10:54 METAR KCRW 231454Z 08005KT 6SM BR FEW008 SCT038 OVC070 17/16 A2991 RMK AO2 RAE46
                 SLP123 PRESFR VLY FG P0017 60059 T01720156 58025 =
2017-10-23 10:29 METAR KCRW 231429Z 08006KT 5SM -RA BR FEW015 BKN038 OVC080 17/16 A2993 RMK AO2
                 PRESFR VLY FG P0015 T01720156 =
2017-10-23 10:26 METAR KCRW 231426Z 09006KT 5SM -RA BR FEW015 BKN035 OVC090 17/16 A2994 RMK AO2
                 PRESFR PRESFR VLY FG P0015 T01720156 =
2017-10-23 10:16 METAR KCRW 231416Z COR 11006KT 2SM +RA BR FEW015 BKN035 OVC090 17/16 A2995 =
2017-10-23 09:54 METAR KCRW 231354Z 07005KT 4SM RA BR FEW040 SCT060 OVC085 17/16 A2997 RMK AO2
                 SLP142 VLY FG P0013 T01720156 =
2017-10-23 09:01 METAR KCRW 231301Z 11010KT 5SM -RA FEW028 SCT045 OVC085 18/15 A2999 RMK AO2
                 P0001 T01780150 =
2017-10-23 08:54 METAR KCRW 231254Z 13011G18KT 2SM -RA FEW025 BKN045 OVC080 18/15 A2999 RMK AO2
                 SLP150 VLY FG P0029 T01780150 =
2017-10-23 08:10 METAR KCRW 231210Z 14006G19KT 2SM +RA FEW025 BKN045 OVC080 18/14 A2999 RMK AO2
                 VLY FG P0005 T01830144 =
2017-10-23 07:54 METAR KCRW 231154Z 13009G19KT 10SM -RA BKN050 OVC100 20/13 A2999 RMK AO2 RAB45
                 SLP147 P0000 60000 T02000133 10206 20183 58017 =
2017-10-23 06:54 METAR KCRW 231054Z 14009KT 10SM BKN220 21/13 A3001 RMK AO2 SLP154 T02060133 $ =
2017-10-23 05:54 METAR KCRW 230954Z 14004KT 10SM SCT210 20/12 A3002 RMK AO2 SLP159 T02000122 $ =
2017-10-23 04:54 METAR KCRW 230854Z 13005KT 10SM BKN210 19/12 A3004 RMK AO2 SLP163 T01940117
                 58022 $ =
2017-10-23 03:54 METAR KCRW 230754Z 12005KT 10SM BKN220 19/11 A3007 RMK AO2 SLP173 T01940111 $ =
2017-10-23 02:54 METAR KCRW 230654Z 00000KT 10SM BKN220 18/11 A3009 RMK AO2 SLP180 T01830106 $ =
2017-10-23 01:54 METAR KCRW 230554Z 00000KT 10SM BKN210 19/10 A3011 RMK AO2 SLP186 T01940100
                 10222 20183 56019 $ =
2017-10-23 00:54 METAR KCRW 230454Z 12003KT 10SM BKN220 19/10 A3011 RMK AO2 SLP189 T01940100
                 402720083 $ =
2017-10-22 23:54 METAR KCRW 230354Z 10003KT 10SM BKN230 21/09 A3014 RMK AO2 SLP198 T02060089 $ =
2017-10-22 22:54 METAR KCRW 230254Z 14009KT 10SM SCT250 21/08 A3016 RMK AO2 SLP207 T02060083
                 50001 $ =
2017-10-22 21:54 METAR KCRW 230154Z 15010G15KT 10SM SCT250 22/07 A3017 RMK AO2 SLP209 T02170072 $
                 =
2017-10-22 20:54 METAR KCRW 230054Z 15008G16KT 10SM SCT250 22/06 A3016 RMK AO2 SLP210 T02170061 $
                 =
2017-10-22 19:54 METAR KCRW 222354Z 14006KT 10SM SCT250 22/08 A3016 RMK AO2 SLP210 T02170078
                 10272 20200 55001 $ =
2017-10-22 18:54 METAR KCRW 222254Z 10004KT 10SM SCT250 22/09 A3016 RMK AO2 SLP208 T02170094 $ =
2017-10-22 17:54 METAR KCRW 222154Z 11004KT 10SM FEW070 SCT250 23/09 A3017 RMK AO2 SLP210
                 T02330094 $ =
2017-10-22 16:54 METAR KCRW 222054Z VRB03KT 10SM FEW070 SCT250 25/09 A3016 RMK AO2 SLP209
                 T02500089 56020 $ =
2017-10-22 15:54 METAR KCRW 221954Z 11005KT 10SM FEW250 26/07 A3017 RMK AO2 SLP211 T02560067 $ =
2017-10-22 14:54 METAR KCRW 221854Z 03004KT 10SM FEW250 26/07 A3019 RMK AO2 SLP218 T02610072 $ =
2017-10-22 13:54 METAR KCRW 221754Z 00000KT 10SM FEW150 SCT250 26/07 A3022 RMK AO2 SLP229
                 T02560067 10261 20083 58022 $ =

Support USWX by starting your Amazon purchase here.